createdAt,value
2022-10-09T00:00:17.634Z,6.20
2022-10-09T00:02:44.714Z,5.57
2022-10-09T00:05:11.915Z,6.60
2022-10-09T00:07:38.985Z,5.95
2022-10-09T00:10:06.255Z,5.78
2022-10-09T00:12:33.286Z,5.90
2022-10-09T00:15:00.271Z,5.57
2022-10-09T00:17:27.316Z,5.05
2022-10-09T00:19:54.347Z,5.78
2022-10-09T00:22:21.388Z,5.13
2022-10-09T00:24:48.422Z,4.70
2022-10-09T00:27:15.441Z,4.90
2022-10-09T00:29:42.479Z,5.53
2022-10-09T00:32:09.500Z,5.10
2022-10-09T00:34:36.503Z,4.95
2022-10-09T00:37:03.560Z,5.97
2022-10-09T00:39:30.888Z,5.78
2022-10-09T00:41:57.890Z,5.28
2022-10-09T00:44:43.391Z,5.55
2022-10-09T00:47:17.445Z,4.75
2022-10-09T00:49:44.502Z,4.70
2022-10-09T00:52:12.000Z,5.93
2022-10-09T00:54:40.803Z,4.93
2022-10-09T00:57:08.330Z,5.30
2022-10-09T00:59:35.822Z,5.78
2022-10-09T01:02:03.016Z,6.13
2022-10-09T01:04:30.351Z,5.40
2022-10-09T01:07:12.437Z,5.50
2022-10-09T01:09:55.373Z,5.07
2022-10-09T01:12:40.931Z,4.95
2022-10-09T01:15:07.910Z,5.90
2022-10-09T01:17:42.321Z,4.55
2022-10-09T01:20:31.549Z,4.93
2022-10-09T01:23:18.888Z,5.70
2022-10-09T01:25:45.940Z,4.53
2022-10-09T01:28:14.638Z,5.10
2022-10-09T01:30:42.149Z,5.15
2022-10-09T01:33:10.369Z,5.32
2022-10-09T01:35:37.784Z,4.82
2022-10-09T01:38:05.067Z,4.57
2022-10-09T01:40:32.378Z,4.80
2022-10-09T01:43:00.009Z,4.93
2022-10-09T01:45:36.516Z,5.25
2022-10-09T01:48:03.717Z,5.30
2022-10-09T01:50:32.780Z,4.50
2022-10-09T01:53:06.911Z,5.60
2022-10-09T01:55:34.174Z,5.22
2022-10-09T01:58:19.264Z,4.82
2022-10-09T02:00:48.841Z,4.90
2022-10-09T02:03:16.988Z,5.30
2022-10-09T02:05:46.420Z,5.03
2022-10-09T02:08:14.329Z,4.90
2022-10-09T02:10:41.847Z,5.43
2022-10-09T02:13:08.950Z,5.43
2022-10-09T02:15:39.496Z,5.03
2022-10-09T02:18:10.306Z,5.20
2022-10-09T02:20:39.530Z,4.78
2022-10-09T02:23:07.781Z,4.95
2022-10-09T02:25:35.384Z,4.95
2022-10-09T02:28:02.869Z,5.53
2022-10-09T02:30:36.276Z,5.10
2022-10-09T02:33:05.212Z,4.57
2022-10-09T02:35:32.422Z,4.53
2022-10-09T02:37:59.417Z,5.90
2022-10-09T02:40:26.462Z,5.65
2022-10-09T02:42:53.628Z,5.10
2022-10-09T02:45:20.636Z,5.03
2022-10-09T02:47:47.620Z,5.63
2022-10-09T02:50:14.657Z,5.15
2022-10-09T02:52:41.672Z,4.95
2022-10-09T02:55:08.927Z,6.30
2022-10-09T02:57:35.986Z,5.28
2022-10-09T03:00:03.738Z,5.50
2022-10-09T03:02:30.789Z,5.18
2022-10-09T03:04:57.938Z,6.07
2022-10-09T03:07:24.959Z,7.22
2022-10-09T03:09:52.609Z,7.07
2022-10-09T03:12:22.011Z,5.90
2022-10-09T03:14:49.037Z,5.72
2022-10-09T03:17:16.071Z,6.40
2022-10-09T03:19:43.047Z,6.50
2022-10-09T03:22:10.060Z,7.43
2022-10-09T03:24:37.061Z,6.78
2022-10-09T03:27:04.090Z,6.13
2022-10-09T03:29:31.196Z,6.68
2022-10-09T03:31:58.304Z,7.38
2022-10-09T03:34:25.350Z,6.22
2022-10-09T03:36:52.361Z,6.50
2022-10-09T03:39:19.384Z,6.20
2022-10-09T03:41:46.392Z,6.18
2022-10-09T03:44:13.373Z,6.20
2022-10-09T03:46:40.568Z,6.18
2022-10-09T03:49:08.000Z,6.22
2022-10-09T03:51:34.984Z,6.35
2022-10-09T03:54:02.094Z,7.05
2022-10-09T03:56:29.086Z,6.65
2022-10-09T03:58:56.134Z,6.43
2022-10-09T04:01:23.197Z,5.55
2022-10-09T04:03:50.245Z,6.05
2022-10-09T04:06:17.301Z,6.10
2022-10-09T04:08:44.282Z,5.88
2022-10-09T04:11:11.296Z,5.53
2022-10-09T04:13:38.278Z,5.68
2022-10-09T04:16:05.415Z,5.72
2022-10-09T04:18:32.418Z,6.20
2022-10-09T04:20:59.436Z,5.53
2022-10-09T04:23:27.648Z,5.65
2022-10-09T04:25:55.422Z,5.57
2022-10-09T04:28:23.375Z,5.45
2022-10-09T04:30:50.698Z,5.57
2022-10-09T04:33:18.098Z,5.70
2022-10-09T04:35:45.412Z,6.28
2022-10-09T04:38:12.619Z,5.25
2022-10-09T04:40:39.585Z,5.72
2022-10-09T04:43:06.677Z,5.20
2022-10-09T04:45:33.808Z,5.22
2022-10-09T04:48:00.860Z,6.40
2022-10-09T04:50:27.849Z,5.63
2022-10-09T04:52:54.837Z,5.20
2022-10-09T04:55:21.955Z,4.65
2022-10-09T04:57:48.933Z,5.90
2022-10-09T05:00:16.088Z,4.53
2022-10-09T05:02:43.071Z,5.50
2022-10-09T05:05:10.194Z,6.20
2022-10-09T05:07:38.426Z,5.90
2022-10-09T05:10:06.114Z,5.88
2022-10-09T05:12:33.133Z,5.18
2022-10-09T05:15:00.154Z,4.95
2022-10-09T05:17:27.816Z,5.50
2022-10-09T05:19:54.982Z,6.38
2022-10-09T05:22:22.043Z,5.80
2022-10-09T05:24:49.052Z,6.22
2022-10-09T05:27:16.111Z,5.90
2022-10-09T05:29:43.200Z,5.63
2022-10-09T05:32:10.252Z,5.88
2022-10-09T05:34:37.318Z,5.45
2022-10-09T05:37:04.316Z,5.93
2022-10-09T05:39:32.391Z,6.45
2022-10-09T05:41:59.377Z,6.05
2022-10-09T05:44:26.366Z,6.65
2022-10-09T05:46:53.380Z,6.40
2022-10-09T05:49:20.367Z,6.82
2022-10-09T05:51:47.379Z,5.75
2022-10-09T05:54:16.382Z,5.50
2022-10-09T05:56:45.566Z,5.68
2022-10-09T05:59:14.966Z,6.30
2022-10-09T06:01:43.338Z,6.10
2022-10-09T06:04:15.003Z,5.25
2022-10-09T06:06:42.378Z,5.30
2022-10-09T06:09:10.400Z,6.03
2022-10-09T06:11:38.254Z,6.68
2022-10-09T06:14:08.453Z,5.40
2022-10-09T06:16:36.615Z,6.57
2022-10-09T06:19:04.317Z,5.90
2022-10-09T06:21:31.368Z,5.43
2022-10-09T06:23:59.841Z,5.28
2022-10-09T06:26:29.233Z,5.43
2022-10-09T06:28:57.003Z,5.47
2022-10-09T06:31:25.534Z,5.75
2022-10-09T06:33:53.256Z,5.00
2022-10-09T06:36:21.699Z,5.95
2022-10-09T06:38:48.722Z,5.03
2022-10-09T06:41:16.905Z,5.72
2022-10-09T06:43:44.676Z,4.95
2022-10-09T06:46:13.178Z,5.00
2022-10-09T06:48:40.866Z,4.90
2022-10-09T06:51:12.362Z,5.50
2022-10-09T06:53:40.574Z,5.40
2022-10-09T06:56:11.192Z,6.05
2022-10-09T06:58:38.961Z,5.70
2022-10-09T07:01:09.067Z,5.85
2022-10-09T07:03:37.008Z,5.70
2022-10-09T07:06:11.741Z,6.18
2022-10-09T07:08:39.433Z,4.75
2022-10-09T07:11:25.872Z,5.13
2022-10-09T07:13:57.358Z,5.15
2022-10-09T07:16:25.781Z,5.07
2022-10-09T07:18:52.805Z,4.95
2022-10-09T07:21:20.314Z,4.82
2022-10-09T07:23:47.767Z,5.28
2022-10-09T07:26:16.467Z,4.75
2022-10-09T07:28:43.977Z,4.75
2022-10-09T07:31:11.558Z,4.95
2022-10-09T07:33:38.922Z,4.88
2022-10-09T07:36:06.656Z,4.90
2022-10-09T07:38:34.018Z,4.78
2022-10-09T07:41:01.770Z,4.57
2022-10-09T07:43:28.862Z,4.50
2022-10-09T07:45:58.883Z,4.95
2022-10-09T07:48:25.909Z,4.72
2022-10-09T07:50:52.886Z,4.68
2022-10-09T07:53:20.006Z,4.30
2022-10-09T07:55:47.625Z,4.82
2022-10-09T07:58:15.434Z,5.13
2022-10-09T08:00:42.447Z,5.10
2022-10-09T08:03:09.625Z,5.28
2022-10-09T08:05:36.743Z,4.90
2022-10-09T08:08:03.909Z,5.20
2022-10-09T08:10:31.694Z,4.55
2022-10-09T08:12:58.837Z,4.63
2022-10-09T08:15:26.387Z,5.00
2022-10-09T08:17:54.190Z,4.35
2022-10-09T08:20:21.436Z,5.03
2022-10-09T08:22:48.695Z,4.43
2022-10-09T08:25:15.833Z,5.30
2022-10-09T08:27:42.939Z,5.43
2022-10-09T08:30:10.051Z,5.50
2022-10-09T08:32:37.270Z,5.18
2022-10-09T08:35:04.426Z,4.68
2022-10-09T08:37:31.484Z,4.78
2022-10-09T08:39:58.458Z,4.25
2022-10-09T08:42:31.869Z,4.95
2022-10-09T08:44:58.921Z,4.60
2022-10-09T08:47:25.907Z,5.63
2022-10-09T08:49:52.893Z,5.03
2022-10-09T08:52:50.152Z,4.57
2022-10-09T08:55:20.464Z,5.05
2022-10-09T08:57:49.730Z,4.93
2022-10-09T09:00:21.378Z,7.68
2022-10-09T09:02:51.515Z,8.00
2022-10-09T09:05:31.243Z,4.75
2022-10-09T09:08:16.922Z,5.30
2022-10-09T09:10:46.870Z,5.40
2022-10-09T09:13:20.077Z,5.35
2022-10-09T09:15:49.561Z,4.90
2022-10-09T09:18:16.791Z,5.72
2022-10-09T09:20:51.779Z,5.10
2022-10-09T09:23:21.404Z,5.07
2022-10-09T09:25:48.413Z,5.25
2022-10-09T09:28:41.523Z,5.45
2022-10-09T09:31:17.870Z,5.80
2022-10-09T09:33:45.129Z,4.90
2022-10-09T09:36:20.594Z,5.05
2022-10-09T09:39:32.424Z,5.43
2022-10-09T09:41:36.005Z,5.60
2022-10-09T09:44:03.047Z,5.03
2022-10-09T09:46:30.954Z,4.97
2022-10-09T09:48:58.007Z,5.05
2022-10-09T09:51:29.201Z,5.20
2022-10-09T09:54:00.904Z,6.00
2022-10-09T09:56:53.164Z,5.15
2022-10-09T09:59:30.835Z,5.70
2022-10-09T10:02:01.860Z,5.38
2022-10-09T10:04:28.979Z,5.32
2022-10-09T10:06:56.182Z,4.75
2022-10-09T10:09:23.199Z,5.43
2022-10-09T10:11:55.097Z,7.18
2022-10-09T10:14:22.170Z,6.18
2022-10-09T10:16:50.762Z,4.93
2022-10-09T10:19:22.057Z,5.45
2022-10-09T10:21:49.763Z,5.03
2022-10-09T10:24:20.874Z,5.35
2022-10-09T10:26:50.954Z,4.20
2022-10-09T10:29:31.802Z,4.45
2022-10-09T10:32:14.129Z,5.38
2022-10-09T10:34:44.092Z,4.43
2022-10-09T10:37:13.993Z,4.60
2022-10-09T10:39:47.696Z,5.30
2022-10-09T10:42:21.798Z,4.47
2022-10-09T10:45:11.833Z,5.28
2022-10-09T10:47:42.106Z,4.57
2022-10-09T10:50:15.915Z,3.63
2022-10-09T10:53:04.495Z,4.47
2022-10-09T10:55:52.966Z,4.05
2022-10-09T11:00:54.929Z,4.15
2022-10-09T11:05:55.573Z,4.10
2022-10-09T11:08:25.457Z,3.80
2022-10-09T11:10:55.191Z,3.67
2022-10-09T11:13:28.036Z,3.53
2022-10-09T11:16:13.659Z,5.13
2022-10-09T11:18:49.865Z,3.28
2022-10-09T11:21:17.126Z,3.83
2022-10-09T11:23:44.165Z,3.67
2022-10-09T11:26:34.298Z,3.33
2022-10-09T11:29:03.249Z,3.50
2022-10-09T11:31:30.278Z,3.25
2022-10-09T11:34:04.027Z,2.90
2022-10-09T11:36:37.927Z,3.70
2022-10-09T11:41:32.637Z,3.25
2022-10-09T11:44:05.328Z,3.28
2022-10-09T11:46:32.320Z,3.33
2022-10-09T11:48:59.307Z,3.60
2022-10-09T11:51:32.153Z,3.53
2022-10-09T11:53:59.344Z,3.67
2022-10-09T11:56:28.239Z,3.20
2022-10-09T11:58:58.630Z,3.45
2022-10-09T12:01:29.385Z,3.28
2022-10-09T12:04:01.337Z,3.38
2022-10-09T12:06:28.603Z,3.88
2022-10-09T12:09:00.365Z,3.30
2022-10-09T12:11:27.811Z,3.22
2022-10-09T12:13:59.377Z,3.50
2022-10-09T12:16:38.532Z,3.55
2022-10-09T12:19:12.295Z,3.67
2022-10-09T12:21:43.811Z,3.28
2022-10-09T12:24:18.699Z,3.95
2022-10-09T12:26:46.690Z,3.42
2022-10-09T12:29:25.221Z,3.58
2022-10-09T12:31:53.843Z,3.03
2022-10-09T12:34:25.361Z,3.35
2022-10-09T12:36:52.469Z,3.70
2022-10-09T12:39:23.311Z,2.80
2022-10-09T12:41:52.672Z,3.20
2022-10-09T12:44:40.167Z,3.58
2022-10-09T12:47:08.859Z,3.85
2022-10-09T12:49:36.386Z,3.58
2022-10-09T12:52:03.928Z,3.55
2022-10-09T12:54:31.894Z,3.80
2022-10-09T12:56:59.077Z,3.63
2022-10-09T12:59:27.100Z,3.67
2022-10-09T13:01:56.417Z,4.43
2022-10-09T13:04:31.062Z,3.17
2022-10-09T13:06:59.416Z,3.33
2022-10-09T13:09:34.076Z,3.67
2022-10-09T13:12:04.814Z,4.00
2022-10-09T13:14:50.603Z,3.88
2022-10-09T13:17:36.402Z,3.53
2022-10-09T13:22:55.595Z,3.22
2022-10-09T13:25:23.357Z,2.50
2022-10-09T13:27:50.690Z,3.47
2022-10-09T13:30:17.873Z,3.58
2022-10-09T13:32:44.892Z,3.40
2022-10-09T13:35:11.987Z,3.25
2022-10-09T13:37:39.043Z,2.90
2022-10-09T13:40:06.459Z,3.85
2022-10-09T13:42:39.297Z,2.60
2022-10-09T13:45:06.545Z,3.42
2022-10-09T13:47:33.562Z,3.10
2022-10-09T13:50:00.591Z,3.25
2022-10-09T13:52:27.624Z,3.13
2022-10-09T13:54:54.697Z,3.13
2022-10-09T13:57:21.737Z,3.47
2022-10-09T13:59:48.775Z,2.92
2022-10-09T14:02:15.877Z,3.58
2022-10-09T14:04:42.990Z,3.65
2022-10-09T14:07:09.983Z,4.13
2022-10-09T14:09:37.035Z,3.50
2022-10-09T14:12:04.103Z,3.33
2022-10-09T14:14:31.100Z,4.88
2022-10-09T14:16:58.123Z,4.05
2022-10-09T14:19:27.571Z,3.38
2022-10-09T14:21:55.187Z,3.72
2022-10-09T14:24:22.301Z,3.17
2022-10-09T14:26:51.659Z,3.45
2022-10-09T14:29:19.042Z,3.17
2022-10-09T14:31:46.252Z,3.42
2022-10-09T14:34:14.386Z,3.13
2022-10-09T14:36:42.230Z,3.22
2022-10-09T14:39:09.498Z,2.78
2022-10-09T14:41:37.883Z,3.13
2022-10-09T14:44:06.001Z,3.38
2022-10-09T14:46:38.514Z,3.38
2022-10-09T14:49:09.562Z,3.97
2022-10-09T14:51:37.947Z,3.63
2022-10-09T14:54:05.830Z,3.83
2022-10-09T14:56:32.896Z,3.70
2022-10-09T14:59:00.934Z,3.72
2022-10-09T15:01:29.131Z,3.58
2022-10-09T15:03:56.340Z,3.30
2022-10-09T15:06:27.919Z,3.53
2022-10-09T15:08:57.175Z,3.67
2022-10-09T15:11:26.681Z,3.85
2022-10-09T15:13:53.679Z,3.88
2022-10-09T15:16:20.899Z,3.58
2022-10-09T15:18:49.533Z,3.33
2022-10-09T15:21:17.922Z,3.50
2022-10-09T15:23:45.101Z,3.58
2022-10-09T15:26:12.178Z,3.45
2022-10-09T15:28:39.974Z,4.35
2022-10-09T15:31:07.958Z,3.95
2022-10-09T15:33:35.033Z,3.75
2022-10-09T15:36:03.907Z,4.53
2022-10-09T15:38:31.087Z,3.50
2022-10-09T15:40:58.060Z,3.83
2022-10-09T15:43:26.465Z,4.20
2022-10-09T15:45:56.684Z,3.75
2022-10-09T15:48:25.550Z,3.72
2022-10-09T15:50:53.710Z,4.38
2022-10-09T15:53:22.059Z,3.22
2022-10-09T15:55:50.235Z,3.25
2022-10-09T15:58:17.457Z,3.50
2022-10-09T16:00:47.279Z,3.03
2022-10-09T16:03:14.796Z,3.67
2022-10-09T16:05:47.567Z,3.28
2022-10-09T16:08:14.622Z,3.55
2022-10-09T16:10:48.826Z,3.58
2022-10-09T16:13:16.151Z,3.60
2022-10-09T16:15:43.585Z,3.40
2022-10-09T16:18:10.870Z,4.25
2022-10-09T16:20:39.564Z,3.33
2022-10-09T16:23:07.887Z,2.88
2022-10-09T16:25:35.595Z,4.20
2022-10-09T16:28:02.604Z,3.88
2022-10-09T16:30:29.745Z,3.30
2022-10-09T16:32:56.958Z,3.55
2022-10-09T16:35:24.202Z,2.97
2022-10-09T16:37:54.285Z,3.58
2022-10-09T16:40:32.695Z,3.45
2022-10-09T16:43:08.296Z,3.63
2022-10-09T16:45:35.464Z,3.40
2022-10-09T16:48:02.466Z,3.15
2022-10-09T16:50:29.880Z,3.47
2022-10-09T16:52:57.575Z,3.78
2022-10-09T16:55:27.324Z,3.38
2022-10-09T16:57:54.363Z,3.10
2022-10-09T17:00:21.393Z,3.47
2022-10-09T17:02:48.391Z,3.72
2022-10-09T17:05:15.427Z,3.53
2022-10-09T17:07:42.451Z,3.35
2022-10-09T17:10:10.022Z,3.92
2022-10-09T17:12:37.137Z,3.47
2022-10-09T17:15:05.461Z,3.97
2022-10-09T17:17:32.638Z,3.75
2022-10-09T17:19:59.621Z,3.60
2022-10-09T17:22:26.624Z,3.70
2022-10-09T17:24:53.651Z,3.83
2022-10-09T17:27:20.627Z,3.50
2022-10-09T17:29:47.637Z,3.47
2022-10-09T17:32:14.903Z,3.55
2022-10-09T17:34:45.644Z,3.35
2022-10-09T17:37:13.186Z,3.95
2022-10-09T17:39:43.698Z,3.13
2022-10-09T17:42:11.887Z,3.67
2022-10-09T17:44:38.962Z,3.80
2022-10-09T17:47:06.139Z,3.40
2022-10-09T17:49:33.216Z,3.38
2022-10-09T17:52:00.270Z,4.32
2022-10-09T17:54:27.267Z,4.78
2022-10-09T17:56:54.323Z,3.35
2022-10-09T17:59:21.891Z,3.90
2022-10-09T18:01:48.883Z,4.13
2022-10-09T18:04:16.457Z,4.00
2022-10-09T18:06:43.533Z,4.20
2022-10-09T18:09:10.799Z,4.30
2022-10-09T18:11:37.951Z,4.30
2022-10-09T18:14:04.972Z,4.53
2022-10-09T18:16:36.773Z,4.15
2022-10-09T18:19:24.218Z,4.18
2022-10-09T18:21:51.286Z,3.33
2022-10-09T18:24:18.331Z,3.88
2022-10-09T18:26:45.573Z,4.38
2022-10-09T18:29:12.694Z,3.78
2022-10-09T18:31:39.787Z,4.07
2022-10-09T18:34:06.980Z,4.20
2022-10-09T18:36:34.849Z,5.10
2022-10-09T18:39:13.441Z,5.00
2022-10-09T18:41:40.510Z,4.43
2022-10-09T18:44:12.087Z,4.38
2022-10-09T18:46:41.682Z,5.03
2022-10-09T18:49:10.084Z,4.10
2022-10-09T18:51:37.761Z,4.93
2022-10-09T18:54:06.385Z,5.38
2022-10-09T18:56:33.998Z,4.20
2022-10-09T18:59:02.198Z,4.57
2022-10-09T19:01:29.350Z,4.63
2022-10-09T19:03:56.489Z,4.45
2022-10-09T19:06:23.853Z,5.18
2022-10-09T19:08:52.464Z,5.05
2022-10-09T19:11:19.559Z,4.07
2022-10-09T19:13:46.635Z,4.35
2022-10-09T19:16:13.745Z,4.10
2022-10-09T19:18:40.898Z,4.95
2022-10-09T19:21:08.136Z,3.92
2022-10-09T19:23:35.227Z,4.43
2022-10-09T19:26:02.372Z,4.32
2022-10-09T19:28:31.137Z,4.15
2022-10-09T19:30:58.327Z,5.25
2022-10-09T19:33:25.333Z,4.07
2022-10-09T19:35:53.472Z,4.72
2022-10-09T19:38:21.117Z,4.88
2022-10-09T19:40:48.238Z,4.72
2022-10-09T19:43:15.931Z,4.07
2022-10-09T19:45:43.196Z,4.43
2022-10-09T19:48:10.706Z,3.95
2022-10-09T19:50:41.933Z,4.40
2022-10-09T19:53:09.210Z,4.47
2022-10-09T19:55:36.313Z,4.38
2022-10-09T19:58:03.346Z,4.10
2022-10-09T20:00:30.911Z,4.28
2022-10-09T20:02:57.958Z,3.75
2022-10-09T20:05:25.073Z,5.07
2022-10-09T20:07:52.110Z,4.15
2022-10-09T20:10:19.327Z,4.72
2022-10-09T20:12:46.486Z,4.75
2022-10-09T20:15:13.651Z,4.35
2022-10-09T20:17:40.685Z,4.35
2022-10-09T20:20:07.965Z,5.00
2022-10-09T20:22:34.996Z,4.35
2022-10-09T20:25:02.126Z,4.10
2022-10-09T20:27:30.427Z,4.78
2022-10-09T20:29:57.474Z,4.18
2022-10-09T20:32:29.013Z,4.13
2022-10-09T20:34:57.922Z,3.53
2022-10-09T20:37:24.982Z,3.90
2022-10-09T20:39:52.023Z,4.13
2022-10-09T20:42:19.071Z,3.95
2022-10-09T20:44:46.098Z,4.28
2022-10-09T20:47:13.258Z,3.90
2022-10-09T20:49:43.380Z,4.03
2022-10-09T20:52:10.669Z,4.18
2022-10-09T20:54:37.750Z,4.15
2022-10-09T20:57:04.769Z,4.03
2022-10-09T20:59:31.868Z,3.80
2022-10-09T21:01:58.905Z,4.28
2022-10-09T21:04:25.977Z,4.03
2022-10-09T21:06:53.039Z,4.60
2022-10-09T21:09:20.017Z,4.55
2022-10-09T21:11:47.013Z,5.00
2022-10-09T21:14:14.050Z,4.50
2022-10-09T21:16:41.055Z,4.55
2022-10-09T21:19:08.383Z,4.45
2022-10-09T21:21:35.483Z,4.18
2022-10-09T21:24:02.804Z,4.57
2022-10-09T21:26:30.666Z,4.07
2022-10-09T21:28:59.948Z,4.93
2022-10-09T21:31:28.391Z,4.65
2022-10-09T21:33:55.951Z,4.70
2022-10-09T21:36:35.125Z,4.28
2022-10-09T21:39:02.188Z,4.95
2022-10-09T21:41:29.257Z,5.00
2022-10-09T21:43:56.342Z,4.57
2022-10-09T21:46:23.783Z,4.93
2022-10-09T21:48:50.962Z,4.60
2022-10-09T21:51:18.058Z,5.72
2022-10-09T21:53:45.104Z,5.72
2022-10-09T21:56:12.549Z,5.43
2022-10-09T21:58:40.369Z,5.55
2022-10-09T22:01:08.064Z,4.80
2022-10-09T22:03:35.899Z,4.05
2022-10-09T22:06:07.019Z,4.20
2022-10-09T22:08:34.442Z,4.13
2022-10-09T22:11:03.594Z,4.50
2022-10-09T22:13:30.606Z,5.05
2022-10-09T22:15:57.604Z,5.13
2022-10-09T22:18:24.641Z,5.40
2022-10-09T22:20:51.939Z,4.50
2022-10-09T22:23:20.145Z,4.80
2022-10-09T22:26:00.247Z,4.78
2022-10-09T22:28:27.312Z,5.07
2022-10-09T22:31:04.634Z,4.70
2022-10-09T22:33:31.967Z,5.32
2022-10-09T22:36:02.763Z,5.75
2022-10-09T22:38:29.755Z,4.63
2022-10-09T22:41:05.691Z,4.82
2022-10-09T22:43:32.751Z,5.40
2022-10-09T22:45:59.838Z,5.95
2022-10-09T22:48:26.870Z,5.47
2022-10-09T22:50:53.911Z,5.20
2022-10-09T22:53:20.896Z,5.40
2022-10-09T22:55:47.996Z,5.45
2022-10-09T22:58:15.074Z,5.85
2022-10-09T23:00:42.124Z,5.38
2022-10-09T23:03:09.144Z,5.00
2022-10-09T23:05:36.150Z,5.50
2022-10-09T23:08:03.142Z,5.15
2022-10-09T23:10:30.166Z,6.43
2022-10-09T23:12:57.186Z,5.38
2022-10-09T23:15:24.183Z,6.28
2022-10-09T23:17:51.201Z,5.95
2022-10-09T23:20:18.268Z,6.43
2022-10-09T23:22:45.325Z,7.20
2022-10-09T23:25:12.307Z,6.50
2022-10-09T23:27:39.361Z,7.53
2022-10-09T23:30:06.587Z,9.38
2022-10-09T23:32:33.655Z,7.32
2022-10-09T23:35:00.662Z,10.30
2022-10-09T23:37:27.649Z,7.85
2022-10-09T23:39:54.682Z,7.88
2022-10-09T23:42:21.672Z,8.38
2022-10-09T23:44:48.705Z,8.32
2022-10-09T23:47:15.695Z,8.73
2022-10-09T23:49:42.790Z,9.35
2022-10-09T23:52:09.817Z,9.18
2022-10-09T23:54:36.801Z,8.85
2022-10-09T23:57:03.952Z,9.07
2022-10-09T23:59:30.928Z,9.95
